Time;durP1;ratioP1;P1;durP2;ratioP2;P2;SDS_P1;SDS_P2;PMS_P1;PMS_P2;Temp;Humidity;BMP_temperature;BMP_pressure;BME280_temperature;BME280_humidity;BME280_pressure;Samples;Min_cycle;Max_cycle;Signal;HPM_P1;HPM_P2
2023/04/19 04:01:40;;;;;;;27.35;20.40;;;8.30;99.90;;;;;;5012105;28;20672;-83
2023/04/19 04:04:08;;;;;;;24.55;20.40;;;8.20;99.90;;;;;;4995183;28;20196;-84
2023/04/19 04:06:35;;;;;;;24.98;19.92;;;8.30;99.90;;;;;;5002959;28;20253;-85
2023/04/19 05:18:51;;;;;;;29.08;20.95;;;8.30;99.90;;;;;;5016120;28;20230;-84
2023/04/19 05:21:18;;;;;;;28.23;20.83;;;8.30;99.90;;;;;;5014807;28;20560;-84
2023/04/19 05:23:46;;;;;;;27.63;20.95;;;8.30;99.90;;;;;;4991932;28;20642;-84
2023/04/19 05:26:14;;;;;;;25.35;20.42;;;8.30;99.90;;;;;;4979638;28;20200;-84
2023/04/19 05:28:41;;;;;;;29.63;21.15;;;8.30;99.90;;;;;;4994904;28;20600;-85
2023/04/19 05:31:08;;;;;;;25.55;20.20;;;8.30;99.90;;;;;;5001867;28;20210;-84
2023/04/19 05:33:37;;;;;;;26.70;19.23;;;8.40;99.90;;;;;;4995622;28;20588;-85
2023/04/19 05:36:07;;;;;;;28.98;19.77;;;8.40;99.90;;;;;;4982693;28;20207;-88
2023/04/19 05:38:34;;;;;;;26.58;20.50;;;8.50;99.90;;;;;;4997669;28;20192;-88
2023/04/19 06:05:50;;;;;;;27.85;19.00;;;8.50;99.90;;;;;;4995995;28;20210;-87
2023/04/19 06:08:17;;;;;;;27.05;19.83;;;8.50;99.90;;;;;;4977312;28;20212;-85
2023/04/19 06:10:46;;;;;;;28.83;20.45;;;8.50;99.90;;;;;;4996134;28;20296;-85
2023/04/19 06:13:13;;;;;;;26.00;19.85;;;8.50;99.90;;;;;;4977096;28;20192;-86
2023/04/19 06:15:40;;;;;;;25.98;19.48;;;8.50;99.90;;;;;;4974621;28;20196;-84
2023/04/19 06:18:10;;;;;;;26.13;19.08;;;8.50;99.90;;;;;;4992099;28;20230;-86
2023/04/19 06:20:37;;;;;;;23.40;18.30;;;8.60;99.90;;;;;;4992337;28;20274;-85
2023/04/19 06:23:06;;;;;;;28.65;19.02;;;8.60;99.90;;;;;;4993429;28;20216;-87
2023/04/19 06:25:33;;;;;;;26.42;19.02;;;8.70;99.90;;;;;;4994163;28;20230;-87
2023/04/19 06:28:00;;;;;;;24.42;18.50;;;8.70;99.90;;;;;;4975898;28;20214;-85
2023/04/19 06:30:28;;;;;;;26.38;19.25;;;8.70;99.90;;;;;;4994018;28;20360;-89
2023/04/19 06:35:37;;;;;;;28.67;18.73;;;8.60;99.90;;;;;;4988976;28;20291;-89
2023/04/19 06:38:06;;;;;;;25.83;18.17;;;8.70;99.90;;;;;;4992634;28;20227;-84
2023/04/19 06:40:34;;;;;;;24.65;18.60;;;8.70;99.90;;;;;;4970310;28;20202;-85
2023/04/19 06:43:00;;;;;;;26.52;18.73;;;8.70;99.90;;;;;;4991329;28;20235;-85
2023/04/19 06:45:27;;;;;;;24.95;17.83;;;8.80;99.90;;;;;;4994131;28;20211;-85
2023/04/19 06:47:55;;;;;;;28.52;19.30;;;8.80;99.90;;;;;;4959613;28;20719;-86
2023/04/19 06:50:22;;;;;;;26.60;19.17;;;8.80;99.90;;;;;;4997201;28;20291;-85
2023/04/19 06:52:49;;;;;;;27.08;19.23;;;8.70;99.90;;;;;;4988142;28;20203;-88
2023/04/19 06:57:58;;;;;;;26.40;18.83;;;8.70;99.90;;;;;;4997025;28;20230;-88
2023/04/19 07:00:25;;;;;;;27.00;19.48;;;8.70;99.90;;;;;;4963047;28;20567;-87
2023/04/19 07:02:52;;;;;;;25.35;19.40;;;8.70;99.90;;;;;;4976302;28;20235;-87
2023/04/19 07:05:19;;;;;;;26.77;19.67;;;8.80;99.90;;;;;;4993244;28;20203;-87
2023/04/19 07:07:47;;;;;;;24.55;18.83;;;8.80;99.90;;;;;;4993908;28;20676;-87
2023/04/19 07:10:14;;;;;;;26.48;19.77;;;8.80;99.90;;;;;;4992666;28;20291;-87
2023/04/19 07:12:44;;;;;;;26.67;18.90;;;8.80;99.90;;;;;;4975382;28;20235;-87
2023/04/19 07:15:32;;;;;;;25.60;18.23;;;8.90;99.90;;;;;;4988192;28;20565;-87
2023/04/19 07:17:59;;;;;;;29.10;18.83;;;8.80;99.90;;;;;;5003566;28;20219;-86
2023/04/19 07:20:26;;;;;;;24.65;18.35;;;8.80;99.90;;;;;;4962385;28;20223;-86
2023/04/19 07:22:53;;;;;;;29.80;18.95;;;8.80;99.90;;;;;;4975346;28;20564;-86
2023/04/19 07:25:20;;;;;;;25.02;18.45;;;8.80;99.90;;;;;;4993393;28;20204;-90
2023/04/19 07:27:48;;;;;;;27.63;19.13;;;8.80;99.90;;;;;;4994159;28;20203;-85
2023/04/19 07:30:15;;;;;;;28.60;19.42;;;8.80;99.90;;;;;;4994737;28;20239;-86
2023/04/19 07:32:42;;;;;;;26.20;18.60;;;8.80;99.90;;;;;;4976168;28;20648;-86
2023/04/19 07:35:10;;;;;;;27.83;18.50;;;8.90;99.90;;;;;;4959718;28;20212;-86
2023/04/19 07:37:37;;;;;;;28.98;18.52;;;8.90;99.90;;;;;;4975861;28;20219;-87
2023/04/19 07:40:06;;;;;;;24.73;18.27;;;9.00;99.90;;;;;;4995351;28;20548;-88
2023/04/19 07:42:36;;;;;;;24.80;18.02;;;9.20;99.90;;;;;;4997380;28;20219;-89
2023/04/19 07:48:24;;;;;;;24.75;18.13;;;9.30;99.90;;;;;;4974317;28;20216;-89
2023/04/19 07:50:51;;;;;;;26.00;17.92;;;9.30;99.90;;;;;;4994620;28;20556;-86
2023/04/19 07:53:20;;;;;;;25.35;18.23;;;9.30;99.90;;;;;;5005435;28;20709;-86
2023/04/19 07:55:48;;;;;;;23.27;17.85;;;9.30;99.90;;;;;;4997463;28;20566;-86
2023/04/19 07:58:17;;;;;;;25.58;17.70;;;9.60;99.90;;;;;;4976349;28;20220;-85
2023/04/19 08:27:17;;;;;;;24.48;17.23;;;11.30;95.80;;;;;;5156853;22;20601;-87
2023/04/19 08:29:44;;;;;;;22.80;16.75;;;11.10;95.50;;;;;;4976602;28;20559;-88
2023/04/19 08:32:12;;;;;;;22.15;16.65;;;11.00;96.00;;;;;;5015280;28;20370;-87
2023/04/19 08:34:41;;;;;;;20.58;16.58;;;11.00;96.00;;;;;;5014240;28;20222;-86
2023/04/19 08:37:08;;;;;;;21.90;16.25;;;11.10;96.00;;;;;;5011650;28;20224;-87
2023/04/19 08:39:35;;;;;;;23.45;16.98;;;11.00;95.20;;;;;;5014367;28;20209;-87
2023/04/19 08:42:06;;;;;;;21.85;16.73;;;11.10;96.00;;;;;;5006229;28;20199;-86
2023/04/19 08:44:33;;;;;;;20.48;16.33;;;11.10;96.00;;;;;;5015381;28;20203;-88
2023/04/19 08:47:00;;;;;;;23.70;15.70;;;11.40;93.80;;;;;;5015287;28;20218;-86
2023/04/19 08:49:28;;;;;;;23.98;14.63;;;11.60;92.70;;;;;;4979335;28;20709;-86
2023/04/19 08:54:41;;;;;;;18.38;14.90;;;11.90;91.90;;;;;;5010251;28;20195;-85
2023/04/19 08:57:34;;;;;;;22.13;16.00;;;11.80;92.20;;;;;;4995592;28;20354;-85
2023/04/19 09:00:13;;;;;;;21.92;15.98;;;11.60;93.00;;;;;;5015149;28;20252;-85
2023/04/19 09:02:48;;;;;;;22.48;16.25;;;11.50;93.90;;;;;;4981508;28;20239;-87
2023/04/19 09:05:16;;;;;;;23.17;16.52;;;11.20;94.00;;;;;;5018668;28;20206;-85
2023/04/19 09:07:48;;;;;;;22.63;16.42;;;11.00;94.90;;;;;;5018124;28;20194;-86
2023/04/19 09:10:18;;;;;;;24.83;17.27;;;10.90;95.40;;;;;;4989295;28;20208;-86
2023/04/19 09:13:01;;;;;;;22.00;16.58;;;10.70;95.60;;;;;;5011774;28;20206;-87
2023/04/19 09:15:37;;;;;;;27.85;17.70;;;10.60;95.90;;;;;;5002334;28;20203;-86
2023/04/19 09:18:06;;;;;;;24.27;17.13;;;10.60;95.90;;;;;;5004877;28;20227;-84
2023/04/19 09:20:37;;;;;;;26.85;17.80;;;10.60;96.40;;;;;;5012887;28;20544;-86
2023/04/19 09:23:07;;;;;;;22.45;16.83;;;10.80;95.90;;;;;;5000082;28;20224;-84
2023/04/19 09:25:34;;;;;;;22.83;17.92;;;11.00;95.50;;;;;;4993333;28;20574;-84
2023/04/19 09:28:12;;;;;;;24.75;17.45;;;11.10;96.00;;;;;;4977082;28;20293;-85
2023/04/19 09:30:40;;;;;;;26.17;17.38;;;11.00;95.90;;;;;;4976156;28;20200;-84
2023/04/19 09:33:08;;;;;;;25.10;18.17;;;11.00;95.90;;;;;;4976293;28;20207;-85
2023/04/19 09:35:42;;;;;;;24.65;17.58;;;11.10;96.00;;;;;;5000762;28;20302;-86
2023/04/19 09:54:48;;;;;;;23.25;15.20;;;13.00;86.60;;;;;;4950357;28;20241;-85
2023/04/19 10:05:57;;;;;;;22.02;15.63;;;13.20;84.60;;;;;;4963850;28;20679;-86
2023/04/19 10:08:48;;;;;;;21.58;16.13;;;13.20;84.40;;;;;;4977739;28;20210;-86
2023/04/19 10:31:53;;;;;;;19.45;15.35;;;12.60;84.60;;;;;;4859576;29;20305;-85
2023/04/19 10:37:16;;;;;;;19.67;14.82;;;12.40;88.60;;;;;;4922053;27;5343350;-85
2023/04/19 10:39:45;;;;;;;20.25;14.77;;;12.40;86.40;;;;;;5100201;28;20196;-89
2023/04/19 10:42:17;;;;;;;17.20;14.25;;;12.30;87.50;;;;;;5106283;28;20196;-85
2023/04/19 10:45:18;;;;;;;17.52;13.95;;;12.10;87.80;;;;;;5106027;28;20192;-85
2023/04/19 10:47:45;;;;;;;18.23;15.25;;;12.00;88.20;;;;;;5093941;28;20286;-86
2023/04/19 10:50:18;;;;;;;21.73;15.15;;;11.80;90.00;;;;;;5110418;28;20210;-86
2023/04/19 10:52:52;;;;;;;19.10;14.25;;;11.70;90.70;;;;;;5059982;28;20207;-85
2023/04/19 10:55:19;;;;;;;19.02;14.85;;;11.60;91.40;;;;;;5075134;28;20564;-85
2023/04/19 10:58:04;;;;;;;19.25;15.23;;;11.40;91.50;;;;;;5106268;28;20208;-85
2023/04/19 11:00:32;;;;;;;21.15;15.38;;;11.20;92.40;;;;;;5107254;28;20194;-86
2023/04/19 11:02:59;;;;;;;41.58;31.00;;;11.10;93.50;;;;;;5087940;28;20221;-85
2023/04/19 11:05:26;;;;;;;31.17;20.80;;;11.00;95.30;;;;;;5108926;28;20656;-84
2023/04/19 11:07:56;;;;;;;20.20;14.82;;;11.00;94.70;;;;;;5112763;28;20204;-87
2023/04/19 11:10:30;;;;;;;18.42;15.07;;;10.80;94.60;;;;;;5105515;28;20196;-85
2023/04/19 11:12:58;;;;;;;19.55;14.45;;;10.70;94.30;;;;;;5089112;28;20196;-84
2023/04/19 11:15:25;;;;;;;20.92;13.93;;;10.70;93.40;;;;;;5088671;28;20216;-87
2023/04/19 11:17:52;;;;;;;16.60;13.25;;;10.60;93.50;;;;;;5113856;28;20206;-84
2023/04/19 11:20:23;;;;;;;18.65;13.10;;;10.70;93.20;;;;;;5085744;28;20204;-85
2023/04/19 11:22:50;;;;;;;20.55;13.80;;;10.70;93.20;;;;;;5090003;28;20208;-87
2023/04/19 11:25:20;;;;;;;18.33;13.88;;;10.70;93.70;;;;;;5086197;28;20201;-86
2023/04/19 11:27:49;;;;;;;21.33;13.57;;;10.80;93.30;;;;;;5081245;28;20197;-84
2023/04/19 11:30:18;;;;;;;22.75;14.40;;;10.70;93.80;;;;;;5083249;28;20254;-85
2023/04/19 11:32:47;;;;;;;18.58;14.00;;;10.70;94.60;;;;;;5079133;28;20197;-86
2023/04/19 11:35:14;;;;;;;21.92;14.13;;;10.70;94.50;;;;;;5065927;28;20197;-86
2023/04/19 11:37:41;;;;;;;18.75;14.18;;;10.70;94.90;;;;;;5088488;28;20291;-84
2023/04/19 11:40:09;;;;;;;20.05;15.10;;;10.70;94.80;;;;;;5074267;28;20231;-86
2023/04/19 11:42:38;;;;;;;20.60;15.02;;;10.70;95.00;;;;;;5083205;28;20200;-85
2023/04/19 11:45:05;;;;;;;20.83;14.90;;;10.60;95.30;;;;;;5079958;28;20208;-87
2023/04/19 11:47:33;;;;;;;22.00;15.50;;;10.70;95.90;;;;;;5077990;28;20197;-89
2023/04/19 11:53:22;;;;;;;18.85;14.50;;;10.50;95.80;;;;;;5078506;28;20194;-85
2023/04/19 11:55:52;;;;;;;20.92;14.85;;;10.30;96.00;;;;;;5043235;28;20275;-87
2023/04/19 11:58:28;;;;;;;19.50;14.98;;;10.20;96.60;;;;;;5050810;28;20279;-85
2023/04/19 12:00:57;;;;;;;18.45;15.40;;;10.10;97.30;;;;;;5068175;28;20193;-87
2023/04/19 12:03:24;;;;;;;23.10;15.77;;;10.00;97.40;;;;;;5063692;28;20200;-87
2023/04/19 12:05:58;;;;;;;22.38;16.30;;;9.80;98.00;;;;;;5066981;28;20198;-86
2023/04/19 12:08:33;;;;;;;24.10;16.92;;;9.70;98.80;;;;;;5050680;28;20204;-85
2023/04/19 12:11:01;;;;;;;24.17;18.35;;;9.60;99.30;;;;;;5060075;28;20273;-87
2023/04/19 12:13:31;;;;;;;23.40;18.10;;;9.50;99.90;;;;;;5067391;28;20205;-85
2023/04/19 12:15:58;;;;;;;24.10;17.38;;;9.50;99.90;;;;;;5067924;28;20217;-85
2023/04/19 12:18:26;;;;;;;20.50;15.75;;;9.40;99.90;;;;;;5038907;28;20262;-87
2023/04/19 12:20:53;;;;;;;22.58;16.00;;;9.30;99.90;;;;;;5066781;28;20193;-85
2023/04/19 12:23:21;;;;;;;23.55;16.58;;;9.30;99.90;;;;;;5067617;28;20255;-86
2023/04/19 12:25:49;;;;;;;21.30;17.45;;;9.30;99.90;;;;;;5073338;28;20201;-88
2023/04/19 12:28:16;;;;;;;26.55;18.80;;;9.40;99.90;;;;;;5073235;28;20688;-89
2023/04/19 12:30:46;;;;;;;24.55;18.95;;;9.30;99.90;;;;;;5031137;28;20204;-89
2023/04/19 12:33:13;;;;;;;25.33;18.90;;;9.30;99.90;;;;;;5062770;28;20216;-90
2023/04/19 12:35:40;;;;;;;29.83;19.98;;;9.20;99.90;;;;;;5069093;28;20541;-91
2023/04/19 12:38:07;;;;;;;28.33;21.67;;;9.30;99.90;;;;;;5053089;28;20204;-89
2023/04/19 12:40:35;;;;;;;28.90;20.27;;;9.30;99.90;;;;;;5074231;28;20197;-87
2023/04/19 12:43:02;;;;;;;27.67;21.33;;;9.30;99.90;;;;;;5049063;28;20201;-90
2023/04/19 12:45:30;;;;;;;24.55;16.92;;;9.40;99.90;;;;;;5067681;28;20205;-89
2023/04/19 12:47:58;;;;;;;17.90;13.60;;;9.30;99.90;;;;;;5074618;28;20276;-88
2023/04/19 12:50:25;;;;;;;13.40;10.70;;;9.30;99.90;;;;;;5058072;28;20217;-87
2023/04/19 12:52:52;;;;;;;13.80;10.80;;;9.10;99.90;;;;;;5054575;28;20202;-87
2023/04/19 12:55:19;;;;;;;13.63;10.38;;;9.00;99.90;;;;;;5056151;28;20259;-87
2023/04/19 12:57:46;;;;;;;15.30;10.73;;;8.80;99.90;;;;;;5037259;28;20225;-87
2023/04/19 13:03:43;;;;;;;15.18;11.80;;;8.70;99.90;;;;;;5062674;28;20181;-87
2023/04/19 13:06:13;;;;;;;18.20;11.95;;;8.60;99.90;;;;;;5045108;28;20300;-87
2023/04/19 13:08:41;;;;;;;18.15;12.35;;;8.60;99.90;;;;;;5079354;28;20209;-87
2023/04/19 13:11:07;;;;;;;14.15;11.52;;;8.70;99.90;;;;;;5065643;28;20205;-84
2023/04/19 13:13:35;;;;;;;14.27;11.13;;;8.70;99.90;;;;;;5069788;28;20205;-87
2023/04/19 13:16:02;;;;;;;15.75;11.38;;;8.80;99.90;;;;;;5068285;28;20215;-86
2023/04/19 13:18:29;;;;;;;14.23;11.32;;;8.80;99.90;;;;;;5046011;28;20198;-91
2023/04/19 13:20:57;;;;;;;14.85;11.25;;;8.70;99.90;;;;;;5063386;28;20284;-89
2023/04/19 13:23:24;;;;;;;14.68;11.35;;;8.70;99.90;;;;;;5062112;28;20225;-88
2023/04/19 13:25:51;;;;;;;17.45;11.85;;;8.70;99.90;;;;;;5061409;28;20208;-86
2023/04/19 13:28:18;;;;;;;13.95;10.82;;;8.70;99.90;;;;;;5038358;28;20544;-87
2023/04/19 13:30:45;;;;;;;15.43;11.98;;;8.70;99.90;;;;;;5059844;28;20188;-85
2023/04/19 13:33:12;;;;;;;16.58;11.65;;;8.70;99.90;;;;;;5064619;28;20658;-90
2023/04/19 13:35:39;;;;;;;18.42;11.70;;;8.70;99.90;;;;;;5061602;28;20236;-87
2023/04/19 13:38:08;;;;;;;14.48;11.05;;;8.70;99.90;;;;;;5059980;28;20229;-89
2023/04/19 13:40:35;;;;;;;13.23;11.32;;;8.70;99.90;;;;;;5045419;28;20202;-89
2023/04/19 13:43:02;;;;;;;16.35;11.43;;;8.60;99.90;;;;;;5078627;28;20538;-89
2023/04/19 13:45:29;;;;;;;15.32;10.10;;;8.60;99.90;;;;;;5067397;28;20209;-90
2023/04/19 13:47:57;;;;;;;13.27;9.98;;;8.60;99.90;;;;;;5057317;28;20193;-89
2023/04/19 13:50:24;;;;;;;11.40;8.50;;;8.60;99.90;;;;;;5079900;28;20621;-88
2023/04/19 13:52:52;;;;;;;8.27;6.53;;;8.60;99.90;;;;;;5035039;28;20197;-85
2023/04/19 14:00:34;;;;;;;7.93;6.05;;;8.40;99.90;;;;;;5040506;28;20229;-89
2023/04/19 14:03:03;;;;;;;7.80;5.78;;;8.40;99.90;;;;;;5052834;28;20255;-88
2023/04/19 14:05:50;;;;;;;9.20;5.20;;;8.30;99.90;;;;;;5021583;28;20206;-88
2023/04/19 14:08:19;;;;;;;6.90;5.40;;;8.30;99.90;;;;;;5035805;28;20724;-85
2023/04/19 14:10:48;;;;;;;9.00;5.72;;;8.30;99.90;;;;;;5043458;28;20206;-84
2023/04/19 14:13:18;;;;;;;7.13;5.78;;;8.20;99.90;;;;;;5038005;28;20203;-86
2023/04/19 14:15:45;;;;;;;5.28;4.60;;;8.20;99.90;;;;;;5032320;28;20557;-84
2023/04/19 14:18:12;;;;;;;5.90;4.00;;;8.20;99.90;;;;;;5048431;28;20218;-88
2023/04/19 14:20:39;;;;;;;6.53;4.18;;;8.20;99.90;;;;;;5047873;28;20533;-87
2023/04/19 14:23:06;;;;;;;6.53;4.47;;;8.10;99.90;;;;;;5053036;28;20217;-87
2023/04/19 14:25:35;;;;;;;8.30;4.18;;;8.00;99.90;;;;;;5060852;28;20204;-84
2023/04/19 14:28:02;;;;;;;5.45;4.00;;;7.90;99.90;;;;;;5062332;28;20190;-88
2023/04/19 14:30:30;;;;;;;7.72;4.97;;;7.90;99.90;;;;;;5064684;28;20213;-85
2023/04/19 14:32:57;;;;;;;7.28;5.20;;;7.90;99.90;;;;;;5058425;28;20658;-83
2023/04/19 14:35:24;;;;;;;7.65;5.38;;;7.80;99.90;;;;;;5063032;28;20657;-84
2023/04/19 14:37:51;;;;;;;9.40;6.18;;;7.70;99.90;;;;;;5060697;28;20677;-83
2023/04/19 14:40:19;;;;;;;7.45;6.15;;;7.60;99.90;;;;;;5050658;28;20190;-85
2023/04/19 14:42:46;;;;;;;8.05;5.85;;;7.50;99.90;;;;;;5056160;28;20854;-84
2023/04/19 14:45:13;;;;;;;11.88;6.82;;;7.50;99.90;;;;;;5054887;28;20193;-84
2023/04/19 14:47:41;;;;;;;8.13;6.38;;;7.40;99.90;;;;;;5058774;28;20239;-84
2023/04/19 14:50:09;;;;;;;8.13;6.40;;;7.30;99.90;;;;;;5057366;28;20208;-84
2023/04/19 14:52:36;;;;;;;7.43;6.63;;;7.30;99.90;;;;;;5043462;28;20602;-86
2023/04/19 14:55:03;;;;;;;7.22;6.30;;;7.30;99.90;;;;;;5057500;28;20246;-86
2023/04/19 14:57:30;;;;;;;6.45;5.55;;;7.20;99.90;;;;;;5062616;28;20248;-88
2023/04/19 14:59:58;;;;;;;4.90;4.40;;;7.10;99.90;;;;;;5051946;28;20201;-87
2023/04/19 15:02:25;;;;;;;5.50;4.50;;;7.00;99.90;;;;;;5058078;28;20612;-86
2023/04/19 15:07:51;;;;;;;6.22;5.05;;;6.70;99.90;;;;;;5053791;28;20233;-87
2023/04/19 15:10:18;;;;;;;7.65;5.85;;;6.60;99.90;;;;;;5057388;28;20209;-90
2023/04/19 15:12:45;;;;;;;7.57;5.13;;;6.60;99.90;;;;;;5059165;28;20229;-88
2023/04/19 15:15:12;;;;;;;6.57;5.35;;;6.60;99.90;;;;;;5061866;28;20195;-90
2023/04/19 15:17:40;;;;;;;7.93;5.93;;;6.60;99.90;;;;;;5064437;28;20221;-87
2023/04/19 15:20:09;;;;;;;10.57;6.20;;;6.50;99.90;;;;;;5060532;28;20629;-88
2023/04/19 15:22:36;;;;;;;7.95;6.07;;;6.50;99.90;;;;;;5060585;28;20229;-88
2023/04/19 15:25:03;;;;;;;7.82;6.43;;;6.50;99.90;;;;;;5063220;28;20772;-87
2023/04/19 15:27:30;;;;;;;9.10;6.47;;;6.40;99.90;;;;;;5060879;28;20201;-87
2023/04/19 15:29:57;;;;;;;8.38;6.43;;;6.30;99.90;;;;;;5066199;28;20194;-87
2023/04/19 15:32:24;;;;;;;7.95;6.53;;;6.30;99.90;;;;;;5068253;28;20205;-87
2023/04/19 15:34:51;;;;;;;12.45;7.45;;;6.30;99.90;;;;;;5063783;28;20193;-87
2023/04/19 15:37:20;;;;;;;10.95;7.00;;;6.30;99.90;;;;;;5067481;28;20696;-87
2023/04/19 15:39:49;;;;;;;8.50;6.57;;;6.30;99.90;;;;;;5068984;28;20204;-86
2023/04/19 15:42:15;;;;;;;10.80;7.07;;;6.30;99.90;;;;;;5052463;28;20201;-88
2023/04/19 15:44:42;;;;;;;10.25;7.55;;;6.30;99.90;;;;;;5066145;28;20273;-87
2023/04/19 15:47:10;;;;;;;11.47;7.73;;;6.40;99.90;;;;;;5043462;28;20205;-87
2023/04/19 15:49:39;;;;;;;11.97;8.07;;;6.30;99.90;;;;;;5058872;28;20238;-87
2023/04/19 15:52:06;;;;;;;10.18;8.10;;;6.40;99.90;;;;;;5061733;28;20208;-91
2023/04/19 15:54:36;;;;;;;9.80;7.38;;;6.40;99.90;;;;;;5063016;28;20197;-88
2023/04/19 15:57:03;;;;;;;11.52;7.47;;;6.40;99.90;;;;;;5061548;28;20232;-86
2023/04/19 15:59:31;;;;;;;9.97;7.37;;;6.40;99.90;;;;;;5062366;28;20274;-86
2023/04/19 16:01:58;;;;;;;10.57;7.30;;;6.40;99.90;;;;;;5058967;28;20247;-87
2023/04/19 16:04:25;;;;;;;10.25;7.10;;;6.40;99.90;;;;;;5041058;28;20562;-87
2023/04/19 16:06:52;;;;;;;9.35;7.40;;;6.30;99.90;;;;;;5062016;28;20210;-87
2023/04/19 16:09:19;;;;;;;8.40;7.30;;;6.40;99.90;;;;;;5060174;28;20212;-85
2023/04/19 16:11:47;;;;;;;10.35;7.53;;;6.40;99.90;;;;;;5058489;28;20578;-84
2023/04/19 16:14:14;;;;;;;9.60;7.30;;;6.40;99.90;;;;;;5064150;28;20293;-87
2023/04/19 16:16:41;;;;;;;9.75;7.30;;;6.40;99.90;;;;;;5058819;28;20201;-85
2023/04/19 16:19:08;;;;;;;8.48;6.95;;;6.40;99.90;;;;;;5059122;28;20573;-88
2023/04/19 16:21:35;;;;;;;8.90;6.85;;;6.40;99.90;;;;;;5058616;28;20559;-86
2023/04/19 16:24:02;;;;;;;10.15;7.43;;;6.40;99.90;;;;;;5054795;28;20252;-88
2023/04/19 16:26:29;;;;;;;7.90;6.60;;;6.40;99.90;;;;;;5053242;28;20220;-84
2023/04/19 16:28:59;;;;;;;8.33;6.50;;;6.40;99.90;;;;;;5057514;28;20197;-87
2023/04/19 16:31:26;;;;;;;8.80;6.57;;;6.30;99.90;;;;;;5063864;28;20255;-86
2023/04/19 16:33:53;;;;;;;6.70;5.87;;;6.10;99.90;;;;;;5057040;28;20201;-90
2023/04/19 16:36:20;;;;;;;7.70;6.40;;;6.00;99.90;;;;;;5061318;28;20197;-85
2023/04/19 16:38:48;;;;;;;8.30;5.93;;;5.90;99.90;;;;;;5068248;28;20590;-89
2023/04/19 16:41:14;;;;;;;7.30;5.50;;;5.90;99.90;;;;;;5063417;28;20205;-87
2023/04/19 16:43:41;;;;;;;7.03;5.30;;;5.80;99.90;;;;;;5067451;28;20198;-86
2023/04/19 16:46:09;;;;;;;8.93;5.33;;;5.80;99.90;;;;;;5060025;28;20193;-86
2023/04/19 16:48:36;;;;;;;8.00;6.10;;;5.70;99.90;;;;;;5069491;28;20205;-88
2023/04/19 16:51:03;;;;;;;5.87;5.27;;;5.70;99.90;;;;;;5061868;28;20280;-88
2023/04/19 16:53:31;;;;;;;5.87;5.10;;;5.50;99.90;;;;;;5063748;28;20221;-87
2023/04/19 16:55:59;;;;;;;6.50;4.90;;;5.50;99.90;;;;;;5062442;28;20577;-83
2023/04/19 16:58:27;;;;;;;7.23;5.30;;;5.40;99.90;;;;;;5064494;28;20233;-91
2023/04/19 17:00:57;;;;;;;7.43;5.23;;;5.40;99.90;;;;;;5058577;28;21494;-85
2023/04/19 17:03:28;;;;;;;6.53;5.20;;;5.40;99.90;;;;;;5063425;28;20212;-85
2023/04/19 17:05:55;;;;;;;7.53;5.57;;;5.40;99.90;;;;;;5055428;28;20202;-88
2023/04/19 17:08:22;;;;;;;7.50;5.43;;;5.40;99.90;;;;;;5064994;28;20671;-89
2023/04/19 17:10:49;;;;;;;8.27;5.33;;;5.50;99.90;;;;;;5058017;28;20197;-89
2023/04/19 17:13:16;;;;;;;8.03;5.50;;;5.50;99.90;;;;;;5060981;28;20209;-86
2023/04/19 17:15:42;;;;;;;5.77;5.10;;;5.40;99.90;;;;;;5066009;28;20206;-86
2023/04/19 17:18:10;;;;;;;6.67;5.40;;;5.40;99.90;;;;;;5082068;28;20305;-86
2023/04/19 17:20:38;;;;;;;8.33;5.90;;;5.50;99.90;;;;;;5061946;28;20202;-85
2023/04/19 17:23:05;;;;;;;6.63;5.70;;;5.50;99.90;;;;;;5063794;28;20769;-83
2023/04/19 17:25:32;;;;;;;6.37;5.67;;;5.50;99.90;;;;;;5057297;28;20205;-84
2023/04/19 17:27:59;;;;;;;8.63;6.37;;;5.50;99.90;;;;;;5055522;28;20198;-85
2023/04/19 17:30:27;;;;;;;9.00;6.27;;;5.50;99.90;;;;;;5054905;28;20206;-86
2023/04/19 17:32:54;;;;;;;9.83;6.93;;;5.60;99.90;;;;;;5060779;28;21232;-86
2023/04/19 17:35:21;;;;;;;8.70;6.07;;;5.60;99.90;;;;;;5067938;28;20205;-82
2023/04/19 17:37:50;;;;;;;7.93;5.97;;;5.50;99.90;;;;;;5058534;28;20245;-83
2023/04/19 17:40:17;;;;;;;8.40;6.33;;;5.40;99.90;;;;;;5061953;28;20719;-84
2023/04/19 17:42:44;;;;;;;7.17;6.10;;;5.40;99.90;;;;;;5052596;28;20212;-82
2023/04/19 17:45:11;;;;;;;10.23;6.00;;;5.30;99.90;;;;;;5056447;28;20228;-82
2023/04/19 17:47:38;;;;;;;7.90;5.93;;;5.30;99.90;;;;;;5063328;28;20212;-83
2023/04/19 17:50:06;;;;;;;8.20;6.23;;;5.30;99.90;;;;;;5064184;28;20661;-81
2023/04/19 17:52:34;;;;;;;8.13;6.57;;;5.30;99.90;;;;;;5061435;28;20202;-83
2023/04/19 17:55:03;;;;;;;8.47;5.87;;;5.20;99.90;;;;;;5053512;28;20202;-82
2023/04/19 17:57:32;;;;;;;9.03;6.60;;;5.30;99.90;;;;;;5053253;28;20315;-85
2023/04/19 18:00:03;;;;;;;7.97;5.70;;;5.20;99.90;;;;;;5055548;28;20198;-83
2023/04/19 18:02:30;;;;;;;7.30;6.33;;;5.10;99.90;;;;;;5061015;28;20198;-83
2023/04/19 18:04:57;;;;;;;11.53;6.97;;;5.10;99.90;;;;;;5061543;28;20270;-83
2023/04/19 18:07:23;;;;;;;7.60;5.87;;;5.10;99.90;;;;;;5048713;28;20692;-86
2023/04/19 18:09:51;;;;;;;8.03;6.30;;;5.10;99.90;;;;;;5055453;28;20224;-87
2023/04/19 18:12:20;;;;;;;8.17;6.37;;;5.20;99.90;;;;;;5058667;28;20243;-88
2023/04/19 18:14:47;;;;;;;8.97;6.23;;;5.20;99.90;;;;;;5044073;28;20641;-86
2023/04/19 18:17:14;;;;;;;7.30;6.33;;;5.30;99.90;;;;;;5057556;28;21164;-85
2023/04/19 18:19:41;;;;;;;8.73;6.17;;;5.30;99.90;;;;;;5057841;28;20887;-85
2023/04/19 18:22:08;;;;;;;7.97;6.10;;;5.40;99.90;;;;;;5067165;28;20213;-86
2023/04/19 18:24:35;;;;;;;10.03;6.00;;;5.30;99.90;;;;;;5058955;28;20201;-84
2023/04/19 18:27:03;;;;;;;8.33;6.63;;;5.30;99.90;;;;;;5054424;28;20198;-83
2023/04/19 18:29:31;;;;;;;7.73;6.20;;;5.20;99.90;;;;;;5055409;28;20654;-84
2023/04/19 18:31:59;;;;;;;8.80;6.40;;;5.10;99.90;;;;;;5056127;28;20204;-82
2023/04/19 18:34:25;;;;;;;7.17;5.87;;;5.10;99.90;;;;;;5060825;28;20627;-84
2023/04/19 18:36:58;;;;;;;10.00;6.90;;;5.20;99.90;;;;;;5059507;28;20204;-83
2023/04/19 18:39:25;;;;;;;10.47;6.90;;;5.20;99.90;;;;;;5058746;28;20209;-83
2023/04/19 18:41:54;;;;;;;7.97;6.10;;;5.10;99.90;;;;;;5057860;28;20197;-86
2023/04/19 18:44:22;;;;;;;8.77;6.60;;;5.10;99.90;;;;;;5060132;28;20197;-82
2023/04/19 18:46:53;;;;;;;8.87;6.60;;;5.10;99.90;;;;;;5067992;28;20197;-83
2023/04/19 18:49:21;;;;;;;7.47;6.30;;;5.10;99.90;;;;;;5063730;28;20205;-84
2023/04/19 18:51:51;;;;;;;8.17;6.40;;;5.10;99.90;;;;;;5065093;28;20205;-83
2023/04/19 18:54:18;;;;;;;8.63;5.77;;;5.00;99.90;;;;;;5060646;28;20284;-85
2023/04/19 18:56:45;;;;;;;8.93;6.17;;;5.00;99.90;;;;;;5063387;28;20197;-82
2023/04/19 18:59:12;;;;;;;8.07;6.00;;;5.00;99.90;;;;;;5060144;28;20244;-83
2023/04/19 19:01:39;;;;;;;8.27;5.60;;;5.00;99.90;;;;;;5066039;28;20239;-84
2023/04/19 19:04:07;;;;;;;7.87;5.20;;;5.00;99.90;;;;;;5074323;28;20236;-82
2023/04/19 19:06:34;;;;;;;9.23;5.53;;;5.00;99.90;;;;;;5067586;28;20198;-83
2023/04/19 19:09:01;;;;;;;8.93;6.03;;;5.00;99.90;;;;;;5060365;28;20206;-84
2023/04/19 19:11:27;;;;;;;6.83;5.43;;;5.00;99.90;;;;;;5063310;28;20208;-83
2023/04/19 19:13:54;;;;;;;6.70;5.43;;;5.00;99.90;;;;;;5053858;28;20194;-83
2023/04/19 19:18:57;;;;;;;7.83;5.63;;;4.90;99.90;;;;;;5226568;22;20433;-86
2023/04/19 19:21:26;;;;;;;8.83;6.00;;;5.00;99.90;;;;;;5066995;28;20204;-88
2023/04/19 19:23:54;;;;;;;10.17;6.53;;;5.00;99.90;;;;;;5067351;28;20202;-88
2023/04/19 19:26:21;;;;;;;12.07;7.27;;;5.10;99.90;;;;;;5067069;28;20202;-87
2023/04/19 19:28:48;;;;;;;9.90;6.87;;;5.20;99.90;;;;;;5063384;28;20194;-87
2023/04/19 19:31:15;;;;;;;10.87;6.77;;;5.20;99.90;;;;;;5058576;28;20213;-87
2023/04/19 19:33:42;;;;;;;10.53;7.47;;;5.20;99.90;;;;;;5065590;28;20308;-83
2023/04/19 19:36:09;;;;;;;8.93;7.20;;;5.10;99.90;;;;;;5065955;28;20204;-87
2023/04/19 19:38:37;;;;;;;9.63;6.70;;;5.10;99.90;;;;;;5065125;28;20729;-86
2023/04/19 19:41:05;;;;;;;9.77;6.80;;;5.20;99.90;;;;;;5064167;28;20583;-86
2023/04/19 19:43:32;;;;;;;9.77;6.30;;;5.30;99.90;;;;;;5070952;28;20211;-86
2023/04/19 19:46:01;;;;;;;7.93;6.00;;;5.30;99.90;;;;;;5068057;28;20297;-85
2023/04/19 19:48:28;;;;;;;6.93;5.87;;;5.20;99.90;;;;;;5063646;28;20205;-85
2023/04/19 19:50:56;;;;;;;8.83;6.00;;;5.20;99.90;;;;;;5068601;28;20205;-86
2023/04/19 19:53:24;;;;;;;6.50;5.60;;;5.20;99.90;;;;;;5070525;28;20659;-86
2023/04/19 19:55:53;;;;;;;6.83;5.50;;;5.10;99.90;;;;;;5070883;28;20197;-86
2023/04/19 19:58:20;;;;;;;6.73;5.90;;;5.10;99.90;;;;;;5064052;28;20213;-85
2023/04/19 20:00:48;;;;;;;7.30;5.90;;;5.10;99.90;;;;;;5070273;28;20204;-86
2023/04/19 20:03:15;;;;;;;6.60;5.00;;;5.20;99.90;;;;;;5068303;28;20209;-85
2023/04/19 20:05:42;;;;;;;6.20;5.17;;;5.30;99.90;;;;;;5067474;28;20531;-85
2023/04/19 20:08:11;;;;;;;6.47;5.23;;;5.40;99.90;;;;;;5065923;28;20194;-85